createdAt,value
2023-05-22T00:04:33.202Z,6.70
2023-05-22T00:09:35.503Z,5.87
2023-05-22T00:14:37.824Z,7.10
2023-05-22T00:19:40.493Z,5.87
2023-05-22T00:24:42.797Z,5.00
2023-05-22T00:29:44.923Z,6.23
2023-05-22T00:34:47.266Z,6.10
2023-05-22T00:39:49.975Z,5.63
2023-05-22T00:44:52.325Z,5.63
2023-05-22T00:49:54.830Z,5.70
2023-05-22T00:54:57.112Z,5.80
2023-05-22T01:00:00.878Z,5.87
2023-05-22T01:05:07.066Z,5.10
2023-05-22T01:10:10.065Z,5.23
2023-05-22T01:15:33.029Z,5.53
2023-05-22T01:20:55.252Z,5.50
2023-05-22T01:26:18.106Z,5.23
2023-05-22T01:31:26.089Z,5.80
2023-05-22T01:36:32.874Z,4.90
2023-05-22T01:41:35.656Z,5.30
2023-05-22T01:46:38.898Z,5.97
2023-05-22T01:51:58.102Z,5.80
2023-05-22T01:57:22.405Z,5.67
2023-05-22T02:02:26.672Z,4.80
2023-05-22T02:07:32.068Z,5.10
2023-05-22T02:12:35.605Z,5.57
2023-05-22T02:17:44.587Z,4.70
2023-05-22T02:22:48.367Z,5.30
2023-05-22T02:27:50.695Z,5.30
2023-05-22T02:32:53.092Z,5.50
2023-05-22T02:37:55.575Z,6.43
2023-05-22T02:42:57.921Z,6.80
2023-05-22T02:48:03.883Z,5.20
2023-05-22T02:53:08.412Z,5.83
2023-05-22T02:58:12.240Z,5.47
2023-05-22T03:03:14.636Z,5.30
2023-05-22T03:08:17.191Z,5.10
2023-05-22T03:13:19.756Z,5.97
2023-05-22T03:18:22.051Z,5.27
2023-05-22T03:23:25.361Z,5.30
2023-05-22T03:28:28.234Z,5.70
2023-05-22T03:33:30.558Z,5.00
2023-05-22T03:38:32.892Z,5.53
2023-05-22T03:43:36.287Z,6.13
2023-05-22T03:48:39.515Z,6.20
2023-05-22T03:53:41.885Z,5.37
2023-05-22T03:58:44.043Z,5.50
2023-05-22T04:03:46.424Z,5.87
2023-05-22T04:08:49.467Z,5.53
2023-05-22T04:13:51.766Z,5.10
2023-05-22T04:18:54.047Z,4.60
2023-05-22T04:23:56.470Z,4.30
2023-05-22T04:28:59.502Z,4.97
2023-05-22T04:34:03.979Z,4.43
2023-05-22T04:39:06.969Z,4.77
2023-05-22T04:44:09.393Z,4.50
2023-05-22T04:49:11.777Z,5.00
2023-05-22T04:54:14.242Z,4.30
2023-05-22T04:59:16.905Z,4.83
2023-05-22T05:04:19.802Z,4.40
2023-05-22T05:09:22.171Z,4.33
2023-05-22T05:14:25.603Z,3.90
2023-05-22T05:19:28.086Z,4.40
2023-05-22T05:24:30.487Z,4.53
2023-05-22T05:29:33.155Z,4.63
2023-05-22T05:34:48.761Z,4.73
2023-05-22T05:40:06.603Z,4.93
2023-05-22T05:45:11.727Z,5.00
2023-05-22T05:50:15.680Z,5.33
2023-05-22T05:55:18.966Z,4.50
2023-05-22T06:00:22.635Z,4.50
2023-05-22T06:05:27.030Z,4.40
2023-05-22T06:10:37.517Z,4.40
2023-05-22T06:15:48.445Z,5.20
2023-05-22T06:20:50.664Z,4.13
2023-05-22T06:25:52.856Z,4.57
2023-05-22T06:30:55.519Z,4.50
2023-05-22T06:35:58.984Z,3.83
2023-05-22T06:41:01.568Z,4.10
2023-05-22T06:46:04.314Z,4.00
2023-05-22T06:51:06.870Z,3.57
2023-05-22T06:56:09.445Z,4.13
2023-05-22T07:01:24.708Z,3.70
2023-05-22T07:06:41.940Z,4.53
2023-05-22T07:11:45.435Z,3.93
2023-05-22T07:16:50.680Z,4.23
2023-05-22T07:22:00.273Z,4.33
2023-05-22T07:27:04.535Z,4.93
2023-05-22T07:32:09.351Z,4.93
2023-05-22T07:37:14.171Z,4.47
2023-05-22T07:42:17.909Z,5.30
2023-05-22T07:47:26.489Z,4.80
2023-05-22T07:52:29.361Z,5.07
2023-05-22T07:57:32.931Z,5.63
2023-05-22T08:02:43.049Z,6.80
2023-05-22T08:07:45.664Z,6.03
2023-05-22T08:12:47.969Z,5.23
2023-05-22T08:17:50.305Z,6.20
2023-05-22T08:22:55.124Z,5.27
2023-05-22T08:27:57.622Z,5.50
2023-05-22T08:32:59.994Z,6.13
2023-05-22T08:38:02.218Z,4.60
2023-05-22T08:43:06.592Z,5.23
2023-05-22T08:48:13.590Z,5.30
2023-05-22T08:53:16.924Z,6.10
2023-05-22T08:58:19.747Z,6.83
2023-05-22T09:03:23.210Z,5.50
2023-05-22T09:08:26.344Z,5.37
2023-05-22T09:13:31.090Z,6.33
2023-05-22T09:18:33.382Z,5.13
2023-05-22T09:23:35.758Z,13.93
2023-05-22T09:28:38.043Z,6.10
2023-05-22T09:33:40.552Z,6.00
2023-05-22T09:38:42.908Z,6.00
2023-05-22T09:43:51.496Z,5.33
2023-05-22T09:48:54.690Z,5.93
2023-05-22T09:54:03.998Z,5.90
2023-05-22T09:59:09.897Z,6.07
2023-05-22T10:04:14.420Z,6.77
2023-05-22T10:09:19.788Z,6.30
2023-05-22T10:14:23.648Z,6.17
2023-05-22T10:19:27.923Z,6.80
2023-05-22T10:24:30.823Z,6.13
2023-05-22T10:29:45.255Z,7.30
2023-05-22T10:34:50.825Z,7.70
2023-05-22T10:40:08.281Z,6.70
2023-05-22T10:45:14.866Z,6.07
2023-05-22T10:50:18.432Z,6.20
2023-05-22T10:55:23.426Z,6.40
2023-05-22T11:00:26.111Z,6.73
2023-05-22T11:05:34.641Z,6.23
2023-05-22T11:10:59.011Z,6.40
2023-05-22T11:16:06.335Z,6.03
2023-05-22T11:21:11.848Z,5.63
2023-05-22T11:26:25.587Z,5.90
2023-05-22T11:31:30.906Z,6.13
2023-05-22T11:36:33.428Z,5.67
2023-05-22T11:41:36.979Z,5.67
2023-05-22T11:46:40.056Z,6.77
2023-05-22T11:51:42.860Z,7.00
2023-05-22T11:56:46.412Z,6.40
2023-05-22T12:01:51.088Z,6.17
2023-05-22T12:06:55.069Z,5.90
2023-05-22T12:11:58.421Z,7.00
2023-05-22T12:17:04.437Z,6.50
2023-05-22T12:22:07.105Z,6.23
2023-05-22T12:27:13.798Z,6.43
2023-05-22T12:32:18.180Z,6.53
2023-05-22T12:37:28.355Z,6.60
2023-05-22T12:42:31.146Z,6.37
2023-05-22T12:52:59.659Z,6.83
2023-05-22T12:58:03.517Z,6.97
2023-05-22T13:03:06.875Z,6.87
2023-05-22T13:08:09.214Z,6.33
2023-05-22T13:13:11.478Z,6.50
2023-05-22T13:18:13.950Z,6.00
2023-05-22T13:23:16.212Z,7.43
2023-05-22T13:28:18.682Z,6.20
2023-05-22T13:33:21.225Z,6.40
2023-05-22T13:38:23.497Z,7.13
2023-05-22T13:43:26.123Z,7.30
2023-05-22T13:48:28.380Z,7.43
2023-05-22T13:53:30.763Z,6.03
2023-05-22T13:58:33.016Z,6.97
2023-05-22T14:03:35.380Z,6.73
2023-05-22T14:08:37.612Z,6.10
2023-05-22T14:13:39.878Z,6.40
2023-05-22T14:18:42.069Z,5.90
2023-05-22T14:23:44.508Z,6.33
2023-05-22T14:28:46.961Z,5.73
2023-05-22T14:33:49.286Z,6.47
2023-05-22T14:38:51.605Z,6.47
2023-05-22T14:43:53.754Z,6.90
2023-05-22T14:48:55.921Z,7.30
2023-05-22T14:53:58.242Z,6.80
2023-05-22T14:59:00.596Z,7.00
2023-05-22T15:04:02.926Z,7.20
2023-05-22T15:09:05.217Z,8.10
2023-05-22T15:14:07.388Z,7.50
2023-05-22T15:19:09.749Z,7.23
2023-05-22T15:24:12.104Z,7.80
2023-05-22T15:29:14.381Z,6.43
2023-05-22T15:34:16.683Z,6.13
2023-05-22T15:39:20.185Z,6.30
2023-05-22T15:44:22.439Z,5.40
2023-05-22T15:49:24.713Z,5.40
2023-05-22T15:54:26.993Z,6.53
2023-05-22T15:59:29.226Z,5.67
2023-05-22T16:04:31.758Z,6.60
2023-05-22T16:09:35.103Z,6.33
2023-05-22T16:14:40.558Z,6.67
2023-05-22T16:19:43.473Z,6.47
2023-05-22T16:24:45.766Z,6.00
2023-05-22T16:29:48.014Z,6.47
2023-05-22T16:34:50.285Z,6.40
2023-05-22T16:39:52.912Z,7.00
2023-05-22T16:44:55.199Z,6.47
2023-05-22T16:49:57.461Z,6.00
2023-05-22T16:55:01.320Z,6.13
2023-05-22T17:00:04.103Z,5.80
2023-05-22T17:05:07.372Z,6.40
2023-05-22T17:10:10.350Z,5.47
2023-05-22T17:15:12.921Z,6.53
2023-05-22T17:20:15.167Z,6.73
2023-05-22T17:25:21.360Z,6.03
2023-05-22T17:30:23.839Z,6.13
2023-05-22T17:35:26.347Z,6.20
2023-05-22T17:40:43.865Z,5.83
2023-05-22T17:45:50.045Z,4.07
2023-05-22T17:50:52.942Z,4.50
2023-05-22T17:55:55.364Z,4.50
2023-05-22T18:00:57.748Z,5.30
2023-05-22T18:06:00.093Z,4.53
2023-05-22T18:11:02.272Z,4.73
2023-05-22T18:16:04.725Z,4.40
2023-05-22T18:21:07.001Z,5.07
2023-05-22T18:26:09.734Z,5.03
2023-05-22T18:31:12.105Z,4.93
2023-05-22T18:36:14.455Z,5.20
2023-05-22T18:41:16.714Z,5.30
2023-05-22T18:52:03.682Z,5.20
2023-05-22T18:57:06.030Z,5.00
2023-05-22T19:02:08.306Z,5.33
2023-05-22T19:07:10.785Z,5.43
2023-05-22T19:12:13.028Z,5.40
2023-05-22T19:17:15.991Z,4.83
2023-05-22T19:22:18.644Z,3.90
2023-05-22T19:27:20.948Z,5.10
2023-05-22T19:32:23.247Z,5.03
2023-05-22T19:37:25.567Z,5.00
2023-05-22T19:42:27.846Z,5.50
2023-05-22T19:47:30.402Z,5.70
2023-05-22T19:52:32.626Z,5.50
2023-05-22T19:57:34.889Z,5.50
2023-05-22T20:02:38.387Z,6.60
2023-05-22T20:07:43.631Z,6.60
2023-05-22T20:12:46.058Z,7.80
2023-05-22T20:17:51.816Z,8.00
2023-05-22T20:22:55.032Z,7.70
2023-05-22T20:27:57.387Z,9.27
2023-05-22T20:32:59.681Z,7.90
2023-05-22T20:38:03.324Z,8.43
2023-05-22T20:43:05.675Z,8.40
2023-05-22T20:48:08.015Z,7.90
2023-05-22T20:53:10.268Z,7.80
2023-05-22T20:58:13.809Z,7.57
2023-05-22T21:03:16.978Z,8.77
2023-05-22T21:08:19.290Z,9.00
2023-05-22T21:13:21.584Z,7.57
2023-05-22T21:18:24.362Z,8.03
2023-05-22T21:23:26.686Z,8.50
2023-05-22T21:28:29.287Z,8.80
2023-05-22T21:33:31.621Z,9.27
2023-05-22T21:38:34.008Z,8.40
2023-05-22T21:43:36.244Z,9.20
2023-05-22T21:48:38.484Z,9.40
2023-05-22T21:53:41.132Z,9.27
2023-05-22T21:58:43.381Z,9.40
2023-05-22T22:03:45.836Z,9.57
2023-05-22T22:08:48.089Z,10.43
2023-05-22T22:13:50.362Z,10.30
2023-05-22T22:18:52.716Z,9.17
2023-05-22T22:23:55.553Z,9.63
2023-05-22T22:28:57.995Z,9.43
2023-05-22T22:34:00.277Z,10.33
2023-05-22T22:39:02.941Z,9.30
2023-05-22T22:44:05.260Z,9.03
2023-05-22T22:49:08.892Z,9.60
2023-05-22T22:54:11.361Z,9.43
2023-05-22T22:59:13.934Z,9.60
2023-05-22T23:04:16.327Z,10.13
2023-05-22T23:09:18.663Z,9.83
2023-05-22T23:14:20.928Z,9.40
2023-05-22T23:19:23.214Z,10.40
2023-05-22T23:24:25.635Z,12.40
2023-05-22T23:29:27.937Z,11.10
2023-05-22T23:34:30.221Z,12.20
2023-05-22T23:39:32.461Z,11.60
2023-05-22T23:44:34.692Z,13.17
2023-05-22T23:49:36.968Z,11.80
2023-05-22T23:54:39.233Z,12.60
2023-05-22T23:59:43.691Z,12.23
